createdAt,value
2019-04-27T15:01:29.005Z,94553.84
2019-04-27T15:04:02.541Z,94551.13
2019-04-27T15:06:36.845Z,94555.07
2019-04-27T15:09:13.476Z,94571.64
2019-04-27T15:11:53.473Z,94582.84
2019-04-27T15:14:26.140Z,94591.99
2019-04-27T15:17:01.489Z,94592.70
2019-04-27T15:19:40.796Z,94586.72
2019-04-27T15:22:23.143Z,94599.06
2019-04-27T15:25:09.210Z,94591.73
2019-04-27T15:27:38.728Z,94585.73
2019-04-27T15:30:18.724Z,94572.69
2019-04-27T15:33:16.155Z,94572.58
2019-04-27T15:36:00.466Z,94561.86
2019-04-27T15:38:47.763Z,94556.02
2019-04-27T15:41:44.875Z,94551.91
2019-04-27T15:44:18.815Z,94555.79
2019-04-27T15:46:53.844Z,94557.61
2019-04-27T15:49:27.425Z,94564.21
2019-04-27T15:52:04.452Z,94581.91
2019-04-27T15:54:37.977Z,94583.52
2019-04-27T15:57:15.032Z,94579.83
2019-04-27T15:59:49.256Z,94573.80
2019-04-27T16:02:22.583Z,94567.98
2019-04-27T16:04:57.993Z,94568.95
2019-04-27T16:07:32.229Z,94558.32
2019-04-27T16:10:06.825Z,94548.48
2019-04-27T16:12:54.789Z,94539.81
2019-04-27T16:15:17.584Z,94521.34
2019-04-27T16:17:55.948Z,94511.55
2019-04-27T16:20:32.335Z,94501.69
2019-04-27T16:23:04.199Z,94481.75
2019-04-27T16:25:46.030Z,94474.55
2019-04-27T16:28:13.489Z,94491.06
2019-04-27T16:30:53.893Z,94481.48
2019-04-27T16:33:28.977Z,94474.42
2019-04-27T16:36:06.815Z,94466.06
2019-04-27T16:38:56.523Z,94447.97
2019-04-27T16:41:32.948Z,94433.27
2019-04-27T16:44:06.868Z,94436.84
2019-04-27T16:46:43.272Z,94443.30
2019-04-27T16:49:19.540Z,94437.34
2019-04-27T16:51:52.998Z,94440.73
2019-04-27T16:54:30.027Z,94435.87
2019-04-27T16:57:06.020Z,94436.27
2019-04-27T16:59:45.752Z,94433.89
2019-04-27T17:08:39.183Z,94415.30
2019-04-27T17:11:13.858Z,94412.00
2019-04-27T17:13:52.104Z,94414.27
2019-04-27T17:16:41.018Z,94421.41
2019-04-27T17:19:24.579Z,94417.13
2019-04-27T17:22:04.556Z,94431.57
2019-04-27T17:24:44.050Z,94435.25
2019-04-27T17:27:20.531Z,94442.28
2019-04-27T17:29:58.024Z,94440.94
2019-04-27T17:32:36.136Z,94438.67
2019-04-27T17:35:14.758Z,94436.02
2019-04-27T17:37:48.867Z,94437.05
2019-04-27T17:40:23.591Z,94440.67
2019-04-27T17:43:03.343Z,94439.20
2019-04-27T17:45:36.341Z,94445.88
2019-04-27T17:48:10.748Z,94452.75
2019-04-27T17:50:45.031Z,94462.50
2019-04-27T17:53:20.380Z,94462.92
2019-04-27T17:55:55.018Z,94470.77
2019-04-27T17:58:35.458Z,94476.61
2019-04-27T18:01:14.026Z,94475.91
2019-04-27T18:03:46.336Z,94482.66
2019-04-27T18:06:24.510Z,94491.83
2019-04-27T18:09:00.708Z,94502.41
2019-04-27T18:11:38.508Z,94507.75
2019-04-27T18:14:14.713Z,94512.25
2019-04-27T18:16:49.466Z,94511.77
2019-04-27T18:19:28.909Z,94516.61
2019-04-27T18:22:07.319Z,94518.52
2019-04-27T18:24:46.444Z,94522.97
2019-04-27T18:27:49.759Z,94526.11
2019-04-27T18:30:38.722Z,94526.92
2019-04-27T18:33:09.681Z,94531.13
2019-04-27T18:35:43.416Z,94532.94
2019-04-27T18:38:17.228Z,94529.45
2019-04-27T18:40:50.739Z,94534.48
2019-04-27T18:43:24.186Z,94536.60
2019-04-27T18:45:58.726Z,94540.06
2019-04-27T18:48:40.249Z,94540.12
2019-04-27T18:51:34.442Z,94526.13
2019-04-27T18:54:11.247Z,94526.73
2019-04-27T18:56:45.007Z,94525.80
2019-04-27T18:59:18.890Z,94530.19
2019-04-27T19:01:52.487Z,94528.25
2019-04-27T19:04:25.878Z,94523.97
2019-04-27T19:07:01.418Z,94530.19
2019-04-27T19:09:35.981Z,94530.06
2019-04-27T19:12:10.927Z,94528.23
2019-04-27T19:14:44.543Z,94526.21
2019-04-27T19:17:19.742Z,94523.95
2019-04-27T19:19:52.950Z,94532.70
2019-04-27T19:22:30.133Z,94528.67
2019-04-27T19:25:04.737Z,94530.27
2019-04-27T19:27:58.128Z,94535.52
2019-04-27T19:30:38.805Z,94536.92
2019-04-27T19:33:12.414Z,94532.59
2019-04-27T19:35:48.074Z,94531.00
2019-04-27T19:38:21.684Z,94532.22
2019-04-27T19:40:55.567Z,94532.41
2019-04-27T19:43:29.159Z,94526.91
2019-04-27T19:46:02.769Z,94525.75
2019-04-27T19:48:38.208Z,94526.64
2019-04-27T19:51:12.630Z,94529.36
2019-04-27T19:53:47.654Z,94525.66
2019-04-27T19:56:21.459Z,94524.25
2019-04-27T19:58:58.200Z,94527.98
2019-04-27T20:01:38.331Z,94529.63
2019-04-27T20:04:32.964Z,94528.39
2019-04-27T20:07:06.610Z,94528.77
2019-04-27T20:10:00.153Z,94528.61
2019-04-27T20:12:33.801Z,94518.92
2019-04-27T20:15:07.413Z,94517.41
2019-04-27T20:17:40.950Z,94515.13
2019-04-27T20:20:15.139Z,94512.23
2019-04-27T20:22:48.332Z,94510.36
2019-04-27T20:25:21.823Z,94510.14
2019-04-27T20:27:55.144Z,94505.30
2019-04-27T20:30:28.527Z,94509.42
2019-04-27T20:33:01.778Z,94514.40
2019-04-27T20:35:35.237Z,94512.55
2019-04-27T20:38:08.654Z,94506.19
2019-04-27T20:40:41.777Z,94506.23
2019-04-27T20:43:14.950Z,94503.27
2019-04-27T20:45:48.095Z,94503.20
2019-04-27T20:48:21.264Z,94500.00
2019-04-27T20:50:54.565Z,94501.16
2019-04-27T20:53:32.643Z,94496.47
2019-04-27T20:56:06.068Z,94496.68
2019-04-27T20:58:41.017Z,94495.55
2019-04-27T21:01:14.073Z,94496.97
2019-04-27T21:03:54.031Z,94494.06
2019-04-27T21:06:42.686Z,94498.36
2019-04-27T21:09:17.697Z,94487.80
2019-04-27T21:11:50.860Z,94486.87
2019-04-27T21:14:23.955Z,94484.69
2019-04-27T21:16:57.040Z,94484.16
2019-04-27T21:19:31.191Z,94486.52
2019-04-27T21:22:04.315Z,94486.95
2019-04-27T21:24:37.309Z,94485.88
2019-04-27T21:27:12.831Z,94489.64
2019-04-27T21:29:45.209Z,94489.45
2019-04-27T21:32:18.867Z,94491.01
2019-04-27T21:34:52.327Z,94491.23
2019-04-27T21:37:25.815Z,94482.30
2019-04-27T21:40:33.273Z,94482.63
2019-04-27T21:43:07.961Z,94486.68
2019-04-27T21:45:42.013Z,94496.52
2019-04-27T21:48:15.275Z,94492.99
2019-04-27T21:50:48.655Z,94494.56
2019-04-27T21:53:51.136Z,94484.81
2019-04-27T21:56:24.177Z,94486.23
2019-04-27T21:58:57.684Z,94492.72
2019-04-27T22:01:35.665Z,94493.29
2019-04-27T22:04:08.909Z,94489.27
2019-04-27T22:06:42.091Z,94490.32
2019-04-27T22:09:16.703Z,94489.92
2019-04-27T22:11:51.072Z,94484.73
2019-04-27T22:14:24.107Z,94483.16
2019-04-27T22:16:57.016Z,94485.55
2019-04-27T22:19:31.093Z,94485.61
2019-04-27T22:22:05.850Z,94482.44
2019-04-27T22:24:42.836Z,94488.46
2019-04-27T22:27:14.867Z,94479.67
2019-04-27T22:29:48.267Z,94480.47
2019-04-27T22:32:21.683Z,94484.39
2019-04-27T22:34:54.882Z,94482.55
2019-04-27T22:37:27.759Z,94482.00
2019-04-27T22:40:21.496Z,94483.50
2019-04-27T22:43:28.630Z,94478.34
2019-04-27T22:46:02.086Z,94484.66
2019-04-27T22:48:35.193Z,94477.27
2019-04-27T22:51:08.266Z,94473.02
2019-04-27T22:53:41.611Z,94471.84
2019-04-27T22:56:21.922Z,94468.33
2019-04-27T22:59:11.962Z,94469.20
2019-04-27T23:01:51.757Z,94475.30
2019-04-27T23:04:32.617Z,94474.46
2019-04-27T23:07:05.988Z,94468.17
2019-04-27T23:09:40.735Z,94474.58
2019-04-27T23:12:14.197Z,94469.00
2019-04-27T23:14:47.141Z,94483.77
2019-04-27T23:17:37.771Z,94483.41
2019-04-27T23:20:11.603Z,94482.91
2019-04-27T23:22:44.538Z,94479.10
2019-04-27T23:25:17.653Z,94482.24
2019-04-27T23:27:51.425Z,94482.98
2019-04-27T23:30:44.454Z,94477.50
2019-04-27T23:33:17.447Z,94477.21
2019-04-27T23:35:51.680Z,94483.47
2019-04-27T23:38:24.826Z,94482.26
2019-04-27T23:40:58.009Z,94479.98
2019-04-27T23:43:30.985Z,94480.06
2019-04-27T23:46:03.993Z,94484.91
2019-04-27T23:48:37.021Z,94481.52
2019-04-27T23:51:23.984Z,94482.75
2019-04-27T23:56:34.175Z,94476.68
2019-04-27T23:59:07.138Z,94477.80
